Time;durP1;ratioP1;P1;durP2;ratioP2;P2;SDS_P1;SDS_P2;PMS_P1;PMS_P2;Temp;Humidity;BMP_temperature;BMP_pressure;BME280_temperature;BME280_humidity;BME280_pressure;Samples;Min_cycle;Max_cycle;Signal;HPM_P1;HPM_P2
2022/11/23 00:02:15;;;;;;;;;;;18.60;64.30;;;;;;5045996;28;955;-70
2022/11/23 00:04:40;;;;;;;;;;;18.60;64.30;;;;;;5045576;28;768;-70
2022/11/23 00:07:06;;;;;;;;;;;18.70;64.40;;;;;;5025786;28;1271;-70
2022/11/23 00:09:31;;;;;;;;;;;18.60;64.30;;;;;;5043011;28;918;-69
2022/11/23 00:11:57;;;;;;;;;;;18.70;64.40;;;;;;5041922;28;1902;-70
2022/11/23 00:14:22;;;;;;;;;;;18.70;64.40;;;;;;5041695;28;1430;-70
2022/11/23 00:16:47;;;;;;;;;;;18.70;64.50;;;;;;5040910;28;1421;-70
2022/11/23 00:19:13;;;;;;;;;;;18.60;64.40;;;;;;5039357;28;869;-69
2022/11/23 00:21:38;;;;;;;;;;;18.70;64.50;;;;;;5038945;28;879;-69
2022/11/23 00:24:04;;;;;;;;;;;18.60;64.40;;;;;;5037162;28;873;-69
2022/11/23 00:26:29;;;;;;;;;;;18.70;64.50;;;;;;5036170;28;1219;-69
2022/11/23 00:28:55;;;;;;;;;;;18.60;64.40;;;;;;5038911;28;1366;-69
2022/11/23 00:31:20;;;;;;;;;;;18.60;64.40;;;;;;5040993;28;1910;-69
2022/11/23 00:33:50;;;;;;;;;;;18.60;64.50;;;;;;5039549;28;859;-69
2022/11/23 00:36:16;;;;;;;;;;;18.60;64.50;;;;;;5021286;28;884;-69
2022/11/23 00:38:41;;;;;;;;;;;18.60;64.50;;;;;;5038783;28;1260;-69
2022/11/23 00:41:11;;;;;;;;;;;18.70;64.60;;;;;;5039585;28;939;-69
2022/11/23 00:43:36;;;;;;;;;;;18.60;64.50;;;;;;5023324;28;892;-69
2022/11/23 00:46:05;;;;;;;;;;;18.60;64.60;;;;;;5037994;28;916;-69
2022/11/23 00:48:30;;;;;;;;;;;18.60;64.50;;;;;;5041077;28;1253;-69
2022/11/23 00:50:56;;;;;;;;;;;18.60;64.50;;;;;;5021209;28;1906;-69
2022/11/23 00:53:21;;;;;;;;;;;18.60;64.50;;;;;;5040947;28;887;-69
2022/11/23 00:55:50;;;;;;;;;;;18.60;64.60;;;;;;5039076;28;998;-69
2022/11/23 00:58:16;;;;;;;;;;;18.60;64.50;;;;;;5039863;28;1224;-69
2022/11/23 01:00:41;;;;;;;;;;;18.60;64.60;;;;;;5036818;28;1014;-69
2022/11/23 01:03:07;;;;;;;;;;;18.60;64.60;;;;;;5039559;28;1248;-69
2022/11/23 01:05:35;;;;;;;;;;;18.60;64.60;;;;;;5038492;28;871;-69
2022/11/23 01:08:01;;;;;;;;;;;18.60;64.60;;;;;;5039166;28;1363;-69
2022/11/23 01:10:27;;;;;;;;;;;18.60;64.60;;;;;;5028608;28;1981;-69
2022/11/23 01:12:52;;;;;;;;;;;18.60;64.60;;;;;;5039589;28;1419;-69
2022/11/23 01:15:17;;;;;;;;;;;18.60;64.60;;;;;;5040584;28;1010;-68
2022/11/23 01:17:43;;;;;;;;;;;18.60;64.60;;;;;;5039215;28;1284;-69
2022/11/23 01:20:08;;;;;;;;;;;18.60;64.60;;;;;;5039667;28;1297;-69
2022/11/23 01:22:34;;;;;;;;;;;18.60;64.60;;;;;;5035907;28;1431;-69
2022/11/23 01:24:59;;;;;;;;;;;18.60;64.60;;;;;;5034155;28;892;-69
2022/11/23 01:27:25;;;;;;;;;;;18.60;64.60;;;;;;5036431;28;1344;-69
2022/11/23 01:29:50;;;;;;;;;;;18.60;64.60;;;;;;5039180;28;871;-69
2022/11/23 01:32:16;;;;;;;;;;;18.60;64.60;;;;;;5037804;28;1949;-69
2022/11/23 01:34:41;;;;;;;;;;;18.60;64.60;;;;;;5040614;28;1014;-69
2022/11/23 01:37:07;;;;;;;;;;;18.60;64.50;;;;;;5038037;28;1277;-69
2022/11/23 01:39:32;;;;;;;;;;;18.60;64.60;;;;;;5035025;28;832;-69
2022/11/23 01:41:57;;;;;;;;;;;18.60;64.50;;;;;;5040500;28;887;-71
2022/11/23 01:44:29;;;;;;;;;;;18.60;64.50;;;;;;5037666;28;830;-71
2022/11/23 01:46:56;;;;;;;;;;;18.60;64.50;;;;;;5040393;28;1292;-69
2022/11/23 01:49:21;;;;;;;;;;;18.60;64.50;;;;;;5041121;28;852;-69
2022/11/23 01:51:48;;;;;;;;;;;18.60;64.50;;;;;;5039730;28;1898;-70
2022/11/23 01:54:14;;;;;;;;;;;18.60;64.50;;;;;;5036656;28;856;-69
2022/11/23 01:56:44;;;;;;;;;;;18.70;64.50;;;;;;5038355;28;903;-69
2022/11/23 01:59:11;;;;;;;;;;;18.60;64.40;;;;;;5039722;28;1245;-69
2022/11/23 02:01:36;;;;;;;;;;;18.70;64.50;;;;;;5018425;28;1343;-69
2022/11/23 02:04:02;;;;;;;;;;;18.70;64.50;;;;;;5039964;28;1047;-69
2022/11/23 02:06:27;;;;;;;;;;;18.70;64.50;;;;;;5021538;28;802;-69
2022/11/23 02:08:53;;;;;;;;;;;18.70;64.50;;;;;;5038578;28;1280;-69
2022/11/23 02:11:18;;;;;;;;;;;18.60;64.40;;;;;;5033297;28;1949;-69
2022/11/23 02:13:44;;;;;;;;;;;18.70;64.50;;;;;;5038373;28;1382;-69
2022/11/23 02:16:09;;;;;;;;;;;18.60;64.40;;;;;;5036043;28;965;-70
2022/11/23 02:18:35;;;;;;;;;;;18.60;64.40;;;;;;5036239;28;1221;-69
2022/11/23 02:21:00;;;;;;;;;;;18.60;64.40;;;;;;5030047;28;920;-70
2022/11/23 02:23:39;;;;;;;;;;;18.60;64.40;;;;;;5040366;28;1018;-70
2022/11/23 02:26:14;;;;;;;;;;;18.60;64.40;;;;;;5023665;28;890;-71
2022/11/23 02:28:41;;;;;;;;;;;18.60;64.50;;;;;;5035917;28;1256;-71
2022/11/23 02:31:07;;;;;;;;;;;18.60;64.50;;;;;;5029272;28;1977;-70
2022/11/23 02:33:32;;;;;;;;;;;18.60;64.50;;;;;;5020256;28;854;-70
2022/11/23 02:35:58;;;;;;;;;;;18.60;64.50;;;;;;5036143;28;809;-70
2022/11/23 02:38:24;;;;;;;;;;;18.60;64.50;;;;;;5036618;28;1245;-69
2022/11/23 02:40:50;;;;;;;;;;;18.60;64.50;;;;;;5036518;28;910;-69
2022/11/23 02:43:15;;;;;;;;;;;18.60;64.50;;;;;;5036047;28;820;-70
2022/11/23 02:45:56;;;;;;;;;;;18.60;64.50;;;;;;5037582;28;813;-70
2022/11/23 02:48:22;;;;;;;;;;;18.60;64.50;;;;;;5036134;28;1277;-70
2022/11/23 02:50:47;;;;;;;;;;;18.60;64.50;;;;;;5040151;28;1906;-70
2022/11/23 02:53:13;;;;;;;;;;;18.60;64.60;;;;;;5036324;28;805;-70
2022/11/23 02:55:38;;;;;;;;;;;18.60;64.50;;;;;;5037210;28;970;-70
2022/11/23 02:58:04;;;;;;;;;;;18.60;64.60;;;;;;5037246;28;1295;-70
2022/11/23 03:00:29;;;;;;;;;;;18.60;64.60;;;;;;5039543;28;792;-70
2022/11/23 03:02:55;;;;;;;;;;;18.60;64.60;;;;;;5021401;28;1286;-70
2022/11/23 03:05:21;;;;;;;;;;;18.60;64.60;;;;;;5038340;28;1797;-70
2022/11/23 03:07:46;;;;;;;;;;;18.60;64.60;;;;;;5032040;28;1367;-70
2022/11/23 03:10:12;;;;;;;;;;;18.60;64.60;;;;;;5036440;28;868;-70
2022/11/23 03:12:37;;;;;;;;;;;18.60;64.60;;;;;;5038180;28;1954;-70
2022/11/23 03:15:03;;;;;;;;;;;18.60;64.60;;;;;;5037144;28;1365;-70
2022/11/23 03:17:29;;;;;;;;;;;18.60;64.70;;;;;;5035281;28;1356;-70
2022/11/23 03:19:54;;;;;;;;;;;18.60;64.60;;;;;;5036819;28;846;-70
2022/11/23 03:22:20;;;;;;;;;;;18.60;64.60;;;;;;5039887;28;1302;-70
2022/11/23 03:24:45;;;;;;;;;;;18.60;64.60;;;;;;5038618;28;836;-70
2022/11/23 03:27:11;;;;;;;;;;;18.60;64.60;;;;;;5038593;28;1343;-70
2022/11/23 03:29:36;;;;;;;;;;;18.60;64.60;;;;;;5036742;28;856;-70
2022/11/23 03:32:02;;;;;;;;;;;18.60;64.60;;;;;;5035529;28;1906;-70
2022/11/23 03:34:27;;;;;;;;;;;18.60;64.50;;;;;;5036489;28;1362;-70
2022/11/23 03:36:53;;;;;;;;;;;18.60;64.50;;;;;;5040058;28;1512;-70
2022/11/23 03:39:18;;;;;;;;;;;18.60;64.50;;;;;;5024953;28;1769;-69
2022/11/23 03:41:44;;;;;;;;;;;18.60;64.50;;;;;;5042948;28;1446;-69
2022/11/23 03:44:09;;;;;;;;;;;18.60;64.50;;;;;;5042951;28;1335;-71
2022/11/23 03:46:35;;;;;;;;;;;18.60;64.50;;;;;;5040370;28;1570;-69
2022/11/23 03:49:00;;;;;;;;;;;18.60;64.50;;;;;;5041342;28;1355;-69
2022/11/23 03:51:26;;;;;;;;;;;18.60;64.50;;;;;;5041193;28;1894;-68
2022/11/23 03:53:51;;;;;;;;;;;18.60;64.50;;;;;;5042990;28;1077;-68
2022/11/23 03:56:17;;;;;;;;;;;18.60;64.50;;;;;;5041955;28;1211;-69
2022/11/23 03:58:42;;;;;;;;;;;18.60;64.50;;;;;;5039888;28;1346;-68
2022/11/23 04:01:07;;;;;;;;;;;18.60;64.50;;;;;;5040811;28;1439;-68
2022/11/23 04:03:33;;;;;;;;;;;18.60;64.50;;;;;;5043128;28;1488;-68
2022/11/23 04:05:59;;;;;;;;;;;18.60;64.50;;;;;;5041927;28;1831;-69
2022/11/23 04:08:24;;;;;;;;;;;18.60;64.50;;;;;;5024762;28;1394;-69
2022/11/23 04:10:50;;;;;;;;;;;18.60;64.50;;;;;;5040506;28;1906;-68
2022/11/23 04:13:15;;;;;;;;;;;18.60;64.50;;;;;;5042470;28;900;-68
2022/11/23 04:15:41;;;;;;;;;;;18.60;64.60;;;;;;5040142;28;982;-68
2022/11/23 04:18:06;;;;;;;;;;;18.60;64.50;;;;;;5042529;28;1212;-67
2022/11/23 04:20:32;;;;;;;;;;;18.60;64.50;;;;;;5040602;28;1049;-68
2022/11/23 04:22:57;;;;;;;;;;;18.60;64.60;;;;;;5040150;28;887;-69
2022/11/23 04:25:23;;;;;;;;;;;18.60;64.60;;;;;;5045090;28;861;-68
2022/11/23 04:27:48;;;;;;;;;;;18.60;64.60;;;;;;5038152;28;1751;-68
2022/11/23 04:30:14;;;;;;;;;;;18.60;64.60;;;;;;5041224;28;896;-68
2022/11/23 04:32:39;;;;;;;;;;;18.60;64.60;;;;;;5040864;28;1975;-68
2022/11/23 04:35:05;;;;;;;;;;;18.60;64.60;;;;;;5037994;28;774;-68
2022/11/23 04:37:30;;;;;;;;;;;18.60;64.60;;;;;;5036503;28;1343;-68
2022/11/23 04:39:56;;;;;;;;;;;18.60;64.60;;;;;;5040957;28;796;-67
2022/11/23 04:42:21;;;;;;;;;;;18.60;64.60;;;;;;5040297;28;924;-67
2022/11/23 04:44:47;;;;;;;;;;;18.60;64.60;;;;;;5039119;28;823;-67
2022/11/23 04:47:12;;;;;;;;;;;18.60;64.60;;;;;;5039280;28;1288;-67
2022/11/23 04:49:37;;;;;;;;;;;18.50;64.60;;;;;;5039219;28;1006;-70
2022/11/23 04:52:03;;;;;;;;;;;18.60;64.70;;;;;;5042350;28;1894;-69
2022/11/23 04:54:29;;;;;;;;;;;18.50;64.60;;;;;;5040909;28;1006;-69
2022/11/23 04:56:55;;;;;;;;;;;18.60;64.60;;;;;;5023819;28;1270;-69
2022/11/23 04:59:21;;;;;;;;;;;18.60;64.70;;;;;;5041935;28;879;-69
2022/11/23 05:01:47;;;;;;;;;;;18.60;64.60;;;;;;5041169;28;820;-68
2022/11/23 05:04:13;;;;;;;;;;;18.60;64.60;;;;;;5039560;28;1032;-68
2022/11/23 05:06:38;;;;;;;;;;;18.60;64.60;;;;;;5035489;28;832;-68
2022/11/23 05:09:03;;;;;;;;;;;18.60;64.60;;;;;;5038060;28;1284;-67
2022/11/23 05:11:29;;;;;;;;;;;18.60;64.60;;;;;;5037766;28;1956;-67
2022/11/23 05:13:54;;;;;;;;;;;18.60;64.50;;;;;;5038783;28;1470;-68
2022/11/23 05:16:20;;;;;;;;;;;18.70;64.50;;;;;;5037127;28;923;-68
2022/11/23 05:18:45;;;;;;;;;;;18.70;64.30;;;;;;5039169;28;1330;-67
2022/11/23 05:21:11;;;;;;;;;;;18.70;64.10;;;;;;5039363;28;949;-68
2022/11/23 05:23:36;;;;;;;;;;;18.80;64.10;;;;;;5038336;28;907;-68
2022/11/23 05:26:02;;;;;;;;;;;18.80;63.90;;;;;;5036386;28;975;-68
2022/11/23 05:28:27;;;;;;;;;;;18.80;63.80;;;;;;5037191;28;1414;-68
2022/11/23 05:30:53;;;;;;;;;;;18.90;63.70;;;;;;5040989;28;1966;-68
2022/11/23 05:33:18;;;;;;;;;;;18.90;63.60;;;;;;5038514;28;1556;-68
2022/11/23 05:35:44;;;;;;;;;;;18.90;63.50;;;;;;5036209;28;975;-69
2022/11/23 05:38:09;;;;;;;;;;;19.00;63.50;;;;;;5035755;28;1355;-69
2022/11/23 05:40:35;;;;;;;;;;;19.00;63.40;;;;;;5038186;28;865;-69
2022/11/23 05:43:00;;;;;;;;;;;19.00;63.30;;;;;;5037631;28;928;-69
2022/11/23 05:45:26;;;;;;;;;;;19.00;63.20;;;;;;5040307;28;809;-68
2022/11/23 05:47:52;;;;;;;;;;;19.00;63.20;;;;;;5037261;28;1291;-69
2022/11/23 05:50:17;;;;;;;;;;;19.00;63.10;;;;;;5038649;28;919;-69
2022/11/23 05:52:43;;;;;;;;;;;19.00;63.00;;;;;;5038107;28;1962;-68
2022/11/23 05:55:08;;;;;;;;;;;19.00;63.00;;;;;;5042274;28;840;-68
2022/11/23 05:57:34;;;;;;;;;;;19.00;63.00;;;;;;5038899;28;1281;-68
2022/11/23 05:59:59;;;;;;;;;;;19.10;63.00;;;;;;5039654;28;872;-68
2022/11/23 06:02:25;;;;;;;;;;;19.10;63.80;;;;;;5039494;28;1267;-68
2022/11/23 06:04:50;;;;;;;;;;;19.10;62.90;;;;;;5039755;28;891;-68
2022/11/23 06:07:16;;;;;;;;;;;19.10;62.90;;;;;;5038303;28;1229;-69
2022/11/23 06:09:41;;;;;;;;;;;19.10;62.90;;;;;;5037741;28;941;-68
2022/11/23 06:12:07;;;;;;;;;;;19.10;62.90;;;;;;5025231;28;1980;-68
2022/11/23 06:14:32;;;;;;;;;;;19.10;62.90;;;;;;5040334;28;1010;-68
2022/11/23 06:16:58;;;;;;;;;;;19.10;62.80;;;;;;5040858;28;1292;-68
2022/11/23 06:19:23;;;;;;;;;;;19.10;62.90;;;;;;5038207;28;795;-68
2022/11/23 06:21:48;;;;;;;;;;;19.10;62.80;;;;;;5035366;28;1507;-69
2022/11/23 06:24:14;;;;;;;;;;;19.10;62.80;;;;;;5037644;28;1069;-69
2022/11/23 06:26:39;;;;;;;;;;;19.10;62.80;;;;;;5023396;28;792;-69
2022/11/23 06:29:05;;;;;;;;;;;19.10;62.80;;;;;;5038961;28;1276;-69
2022/11/23 06:31:30;;;;;;;;;;;19.10;62.70;;;;;;5037964;28;1897;-69
2022/11/23 06:33:56;;;;;;;;;;;19.20;62.80;;;;;;5035388;28;1054;-69
2022/11/23 06:36:21;;;;;;;;;;;19.20;62.80;;;;;;5036971;28;800;-68
2022/11/23 06:38:47;;;;;;;;;;;19.20;62.80;;;;;;5040752;28;1276;-68
2022/11/23 06:41:12;;;;;;;;;;;19.20;62.80;;;;;;5039626;28;881;-68
2022/11/23 06:43:38;;;;;;;;;;;19.20;62.80;;;;;;5037556;28;819;-68
2022/11/23 06:46:04;;;;;;;;;;;19.10;62.70;;;;;;5037879;28;867;-68
2022/11/23 06:48:30;;;;;;;;;;;19.20;62.80;;;;;;5038440;28;1347;-69
2022/11/23 06:50:57;;;;;;;;;;;19.20;62.80;;;;;;5036448;28;1898;-68
2022/11/23 06:53:23;;;;;;;;;;;19.10;62.70;;;;;;5034399;28;846;-68
2022/11/23 06:55:48;;;;;;;;;;;19.20;62.80;;;;;;5037185;28;827;-68
2022/11/23 06:58:13;;;;;;;;;;;19.20;63.60;;;;;;5032608;28;1217;-69
2022/11/23 07:00:39;;;;;;;;;;;19.20;62.80;;;;;;5038680;28;888;-68
2022/11/23 07:03:04;;;;;;;;;;;19.20;62.80;;;;;;5038939;28;1254;-68
2022/11/23 07:05:30;;;;;;;;;;;19.20;62.80;;;;;;5037388;28;864;-70
2022/11/23 07:07:55;;;;;;;;;;;19.10;62.70;;;;;;5031779;28;1595;-66
2022/11/23 07:10:21;;;;;;;;;;;19.20;62.80;;;;;;5034871;28;1802;-69
2022/11/23 07:12:46;;;;;;;;;;;19.20;62.80;;;;;;5041622;28;1957;-69
2022/11/23 07:15:12;;;;;;;;;;;19.20;62.80;;;;;;5025987;28;1347;-71
2022/11/23 07:17:38;;;;;;;;;;;19.20;62.80;;;;;;5021676;28;1296;-69
2022/11/23 07:20:07;;;;;;;;;;;19.20;62.80;;;;;;5031103;28;1027;-71
2022/11/23 07:22:33;;;;;;;;;;;19.20;62.80;;;;;;5032755;28;879;-75
2022/11/23 07:24:58;;;;;;;;;;;19.10;62.80;;;;;;5026627;28;908;-70
2022/11/23 07:27:23;;;;;;;;;;;19.10;62.70;;;;;;5038390;28;1276;-67
2022/11/23 07:29:49;;;;;;;;;;;19.20;62.80;;;;;;5039697;28;876;-69
2022/11/23 07:32:14;;;;;;;;;;;19.20;62.80;;;;;;5037358;28;1965;-68
2022/11/23 07:34:40;;;;;;;;;;;19.20;62.80;;;;;;5039703;28;1097;-67
2022/11/23 07:37:06;;;;;;;;;;;19.10;62.70;;;;;;5039061;28;1291;-67
2022/11/23 07:39:31;;;;;;;;;;;19.20;62.80;;;;;;5026554;28;1367;-67
2022/11/23 07:41:57;;;;;;;;;;;19.20;62.80;;;;;;5042325;28;961;-66
2022/11/23 07:44:22;;;;;;;;;;;19.10;62.80;;;;;;5026557;28;4106;-65
2022/11/23 07:46:48;;;;;;;;;;;19.20;62.80;;;;;;5019844;28;990;-70
2022/11/23 07:49:14;;;;;;;;;;;19.10;62.80;;;;;;5026504;28;1324;-70
2022/11/23 07:51:39;;;;;;;;;;;19.20;62.80;;;;;;5032707;28;1898;-68
2022/11/23 07:54:05;;;;;;;;;;;19.10;62.80;;;;;;5041492;28;860;-69
2022/11/23 07:56:30;;;;;;;;;;;19.20;62.90;;;;;;5042398;28;977;-70
2022/11/23 07:58:55;;;;;;;;;;;19.10;62.80;;;;;;5039896;28;1261;-69
2022/11/23 08:01:21;;;;;;;;;;;19.10;62.80;;;;;;5040367;28;804;-68
2022/11/23 08:03:47;;;;;;;;;;;19.20;62.90;;;;;;5040727;28;1264;-70
2022/11/23 08:06:12;;;;;;;;;;;19.10;62.80;;;;;;5040182;28;900;-70
2022/11/23 08:08:38;;;;;;;;;;;19.20;62.90;;;;;;5041152;28;1205;-69
2022/11/23 08:11:04;;;;;;;;;;;19.10;62.90;;;;;;5031420;28;1945;-69
2022/11/23 08:13:31;;;;;;;;;;;19.10;62.90;;;;;;5041718;28;1037;-69
2022/11/23 08:15:56;;;;;;;;;;;19.10;62.90;;;;;;5041520;28;878;-69
2022/11/23 08:18:25;;;;;;;;;;;19.10;62.90;;;;;;5042347;28;1212;-69
2022/11/23 08:20:50;;;;;;;;;;;19.10;63.70;;;;;;5031866;28;1074;-69
2022/11/23 08:23:16;;;;;;;;;;;19.10;62.90;;;;;;5039990;28;875;-69
2022/11/23 08:25:41;;;;;;;;;;;19.10;62.90;;;;;;5039276;28;876;-69
2022/11/23 08:28:07;;;;;;;;;;;19.10;62.90;;;;;;5042717;28;2271;-69
2022/11/23 08:30:32;;;;;;;;;;;19.10;62.90;;;;;;5039494;28;1012;-69
2022/11/23 08:32:58;;;;;;;;;;;19.10;63.00;;;;;;5039740;28;1981;-70
2022/11/23 08:35:23;;;;;;;;;;;19.10;63.00;;;;;;5041010;28;948;-70
2022/11/23 08:37:49;;;;;;;;;;;19.10;63.00;;;;;;5040042;28;1268;-70
2022/11/23 08:40:14;;;;;;;;;;;19.10;63.00;;;;;;5022414;28;1220;-70
2022/11/23 08:42:40;;;;;;;;;;;19.10;63.00;;;;;;5020519;28;867;-69
2022/11/23 08:45:05;;;;;;;;;;;19.10;63.00;;;;;;5040271;28;813;-69
2022/11/23 08:47:31;;;;;;;;;;;19.10;63.00;;;;;;5036666;28;1261;-69
2022/11/23 08:49:57;;;;;;;;;;;19.10;63.00;;;;;;5037760;28;965;-70
2022/11/23 08:52:22;;;;;;;;;;;19.10;63.00;;;;;;5041417;28;1902;-71
2022/11/23 08:54:48;;;;;;;;;;;19.10;63.00;;;;;;5040773;28;851;-71
2022/11/23 08:57:13;;;;;;;;;;;19.10;63.80;;;;;;5023909;28;1276;-69
2022/11/23 08:59:39;;;;;;;;;;;19.10;63.00;;;;;;5037614;28;864;-70
2022/11/23 09:02:04;;;;;;;;;;;19.10;63.00;;;;;;5039529;28;1261;-70
2022/11/23 09:04:30;;;;;;;;;;;19.10;63.00;;;;;;5041622;28;948;-71
2022/11/23 09:06:56;;;;;;;;;;;19.10;62.90;;;;;;5039644;28;1955;-70
2022/11/23 09:09:21;;;;;;;;;;;19.10;63.00;;;;;;5022067;28;1585;-70
2022/11/23 09:11:47;;;;;;;;;;;19.10;62.90;;;;;;5023005;28;1964;-69
2022/11/23 09:14:12;;;;;;;;;;;19.10;63.00;;;;;;5042811;28;1435;-69
2022/11/23 09:16:38;;;;;;;;;;;19.10;63.00;;;;;;5038622;28;891;-69
2022/11/23 09:19:05;;;;;;;;;;;19.10;62.90;;;;;;5040593;28;1232;-68
2022/11/23 09:21:32;;;;;;;;;;;19.10;63.00;;;;;;5028120;28;2098;-69
2022/11/23 09:23:58;;;;;;;;;;;19.10;62.90;;;;;;5039416;28;860;-69
2022/11/23 09:26:24;;;;;;;;;;;19.20;63.00;;;;;;5034371;28;1495;-69
2022/11/23 09:28:49;;;;;;;;;;;19.20;63.00;;;;;;5034271;28;1345;-69
2022/11/23 09:31:15;;;;;;;;;;;19.20;63.00;;;;;;5031231;28;1902;-70
2022/11/23 09:33:40;;;;;;;;;;;19.20;63.00;;;;;;5040763;28;1006;-69
2022/11/23 09:36:06;;;;;;;;;;;19.20;62.90;;;;;;5034725;28;801;-69
2022/11/23 09:38:31;;;;;;;;;;;19.20;62.90;;;;;;5039092;28;1406;-69
2022/11/23 09:41:07;;;;;;;;;;;19.20;62.90;;;;;;5038709;28;843;-69
2022/11/23 09:43:35;;;;;;;;;;;19.20;62.90;;;;;;5030482;28;991;-70
2022/11/23 09:46:21;;;;;;;;;;;19.20;62.90;;;;;;5019825;28;2239;-69
2022/11/23 09:48:52;;;;;;;;;;;19.20;62.90;;;;;;5035342;28;2394;-70
2022/11/23 09:51:18;;;;;;;;;;;19.20;62.90;;;;;;5036311;28;1890;-70
2022/11/23 09:53:49;;;;;;;;;;;19.10;62.80;;;;;;5033556;28;1439;-70
2022/11/23 09:56:15;;;;;;;;;;;19.20;62.90;;;;;;5023848;28;855;-70
2022/11/23 09:58:40;;;;;;;;;;;19.20;62.90;;;;;;5040828;28;1296;-70
2022/11/23 10:01:06;;;;;;;;;;;19.20;62.90;;;;;;5018185;28;1403;-69
2022/11/23 10:03:35;;;;;;;;;;;19.10;62.90;;;;;;5031211;28;1293;-68
2022/11/23 10:06:01;;;;;;;;;;;19.20;62.90;;;;;;5034032;28;2383;-68
2022/11/23 10:08:38;;;;;;;;;;;19.10;62.90;;;;;;5035816;28;1315;-69
2022/11/23 10:11:23;;;;;;;;;;;19.10;62.90;;;;;;5029846;28;1948;-69
2022/11/23 10:14:17;;;;;;;;;;;19.10;62.90;;;;;;5036417;28;1465;-69
2022/11/23 10:16:43;;;;;;;;;;;19.10;62.90;;;;;;5008511;28;1126;-69
2022/11/23 10:19:16;;;;;;;;;;;19.10;63.00;;;;;;5043353;28;1284;-67
2022/11/23 10:21:54;;;;;;;;;;;19.10;63.00;;;;;;5027031;28;1590;-68
2022/11/23 10:24:23;;;;;;;;;;;19.10;63.00;;;;;;5031980;28;1306;-68
2022/11/23 10:26:49;;;;;;;;;;;19.10;63.00;;;;;;5034336;28;961;-68
2022/11/23 10:29:16;;;;;;;;;;;19.10;63.00;;;;;;5037819;28;1205;-68
2022/11/23 10:31:46;;;;;;;;;;;19.10;63.00;;;;;;5036049;28;1909;-69
2022/11/23 10:34:15;;;;;;;;;;;19.10;63.00;;;;;;5027915;28;1264;-68
2022/11/23 10:36:41;;;;;;;;;;;19.10;62.90;;;;;;5028475;28;927;-68
2022/11/23 10:39:24;;;;;;;;;;;19.10;63.00;;;;;;5037665;28;1277;-69
2022/11/23 10:41:49;;;;;;;;;;;19.10;63.00;;;;;;5035837;28;1011;-69
2022/11/23 10:44:24;;;;;;;;;;;19.10;63.00;;;;;;5037627;28;907;-68
2022/11/23 10:46:49;;;;;;;;;;;19.10;63.00;;;;;;5023602;28;1347;-69
2022/11/23 10:49:15;;;;;;;;;;;19.10;63.00;;;;;;5041898;28;899;-69
2022/11/23 10:51:47;;;;;;;;;;;19.10;62.90;;;;;;5040034;28;1906;-70
2022/11/23 10:54:31;;;;;;;;;;;19.10;62.90;;;;;;5033552;28;1357;-70
2022/11/23 10:56:57;;;;;;;;;;;19.10;63.00;;;;;;5042520;28;1386;-68
2022/11/23 10:59:30;;;;;;;;;;;19.10;63.00;;;;;;5022564;28;833;-69
2022/11/23 11:02:16;;;;;;;;;;;19.10;62.90;;;;;;5042934;28;1255;-69
2022/11/23 11:04:42;;;;;;;;;;;19.10;62.90;;;;;;5041184;28;1645;-69
2022/11/23 11:07:27;;;;;;;;;;;19.10;62.90;;;;;;5042406;28;1944;-70
2022/11/23 11:09:53;;;;;;;;;;;19.10;62.90;;;;;;5040947;28;2091;-69
2022/11/23 11:12:19;;;;;;;;;;;19.10;62.90;;;;;;5031754;28;1969;-69
2022/11/23 11:15:13;;;;;;;;;;;19.10;62.90;;;;;;5041261;28;1434;-69
2022/11/23 11:17:40;;;;;;;;;;;19.10;62.90;;;;;;5030444;28;1291;-70
2022/11/23 11:20:25;;;;;;;;;;;19.10;62.90;;;;;;5041671;28;861;-69
2022/11/23 11:22:50;;;;;;;;;;;19.10;62.90;;;;;;5039571;28;858;-70
2022/11/23 11:25:34;;;;;;;;;;;19.10;62.90;;;;;;5039998;28;1869;-69
2022/11/23 11:28:01;;;;;;;;;;;19.10;62.90;;;;;;5040080;28;1919;-69
2022/11/23 11:30:47;;;;;;;;;;;19.10;62.90;;;;;;5041820;28;1363;-69
2022/11/23 11:33:19;;;;;;;;;;;19.10;62.90;;;;;;5041434;28;1362;-69
2022/11/23 11:35:48;;;;;;;;;;;19.10;63.00;;;;;;5042239;28;920;-69
2022/11/23 11:38:21;;;;;;;;;;;19.10;62.90;;;;;;5041638;28;1375;-70
2022/11/23 11:40:48;;;;;;;;;;;19.10;62.90;;;;;;5039067;28;804;-69
2022/11/23 11:43:33;;;;;;;;;;;19.10;62.90;;;;;;5036374;28;1380;-67
2022/11/23 11:46:01;;;;;;;;;;;19.10;63.30;;;;;;5025042;28;955;-67
2022/11/23 11:48:27;;;;;;;;;;;19.20;63.10;;;;;;5038046;28;1275;-67
2022/11/23 11:50:55;;;;;;;;;;;19.20;60.40;;;;;;5031413;28;1906;-67
2022/11/23 11:53:26;;;;;;;;;;;19.20;62.30;;;;;;5040988;28;891;-67
2022/11/23 11:55:56;;;;;;;;;;;19.20;59.50;;;;;;5022492;28;892;-69
2022/11/23 11:58:23;;;;;;;;;;;19.20;57.90;;;;;;5034362;28;2006;-69
2022/11/23 12:00:48;;;;;;;;;;;19.20;57.50;;;;;;5040878;28;1208;-70
2022/11/23 12:03:19;;;;;;;;;;;19.10;57.60;;;;;;5038592;28;1346;-70
2022/11/23 12:05:49;;;;;;;;;;;19.10;57.70;;;;;;5023619;28;905;-70
2022/11/23 12:08:25;;;;;;;;;;;19.10;58.00;;;;;;5038496;28;1367;-70
2022/11/23 12:10:58;;;;;;;;;;;19.10;58.30;;;;;;5031081;28;1957;-70
2022/11/23 12:13:24;;;;;;;;;;;19.10;58.60;;;;;;5037094;28;1354;-70
2022/11/23 12:15:54;;;;;;;;;;;19.10;58.90;;;;;;5023896;28;2087;-70
2022/11/23 12:18:33;;;;;;;;;;;19.10;59.10;;;;;;5028879;28;1477;-70
2022/11/23 12:21:01;;;;;;;;;;;19.00;59.30;;;;;;5023111;28;1372;-69
2022/11/23 12:23:42;;;;;;;;;;;19.00;59.50;;;;;;5039060;28;884;-70
2022/11/23 12:26:10;;;;;;;;;;;19.00;59.50;;;;;;5039710;28;868;-70
2022/11/23 12:28:40;;;;;;;;;;;19.00;59.70;;;;;;5037277;28;1296;-69
2022/11/23 12:31:23;;;;;;;;;;;19.00;59.80;;;;;;5031539;28;1910;-69
2022/11/23 12:34:01;;;;;;;;;;;19.00;60.00;;;;;;5040808;28;1026;-69
2022/11/23 12:36:39;;;;;;;;;;;19.00;60.00;;;;;;5025747;28;830;-70
2022/11/23 12:39:23;;;;;;;;;;;19.00;60.10;;;;;;5039318;28;1339;-70
2022/11/23 12:41:51;;;;;;;;;;;19.00;60.20;;;;;;5039985;28;780;-69
2022/11/23 12:44:35;;;;;;;;;;;19.00;60.30;;;;;;5038395;28;970;-70
2022/11/23 12:47:01;;;;;;;;;;;19.00;60.40;;;;;;5039614;28;1691;-69
2022/11/23 12:49:35;;;;;;;;;;;19.00;60.50;;;;;;5041884;28;1297;-70
2022/11/23 12:52:16;;;;;;;;;;;19.00;60.70;;;;;;5019988;28;1930;-68
2022/11/23 12:54:41;;;;;;;;;;;19.00;60.70;;;;;;5040831;28;1397;-68
2022/11/23 12:57:06;;;;;;;;;;;19.00;60.80;;;;;;5039435;28;1610;-70
2022/11/23 12:59:52;;;;;;;;;;;19.00;60.90;;;;;;5043494;28;1397;-68
2022/11/23 13:02:38;;;;;;;;;;;19.00;60.90;;;;;;5041294;28;1378;-70
2022/11/23 13:05:18;;;;;;;;;;;19.00;61.00;;;;;;5016358;28;1572;-70
2022/11/23 13:07:44;;;;;;;;;;;19.00;61.00;;;;;;5034168;28;1587;-72
2022/11/23 13:10:12;;;;;;;;;;;19.00;61.10;;;;;;5034309;28;1014;-71
2022/11/23 13:12:57;;;;;;;;;;;19.00;61.10;;;;;;5035573;28;1959;-73
2022/11/23 13:15:35;;;;;;;;;;;19.00;61.10;;;;;;5041054;28;1478;-72
2022/11/23 13:18:05;;;;;;;;;;;19.00;61.20;;;;;;5005922;28;1383;-72
2022/11/23 13:21:03;;;;;;;;;;;19.00;61.20;;;;;;5022395;28;1366;-70
2022/11/23 13:23:33;;;;;;;;;;;19.00;61.30;;;;;;4988964;28;1503;-70
2022/11/23 13:26:11;;;;;;;;;;;19.00;61.30;;;;;;5016539;28;986;-71
2022/11/23 13:28:36;;;;;;;;;;;19.00;61.30;;;;;;5032119;28;1279;-70
2022/11/23 13:31:14;;;;;;;;;;;19.00;61.40;;;;;;5026410;28;1906;-71
2022/11/23 13:33:40;;;;;;;;;;;19.00;61.40;;;;;;5033931;28;1224;-71
2022/11/23 13:36:09;;;;;;;;;;;19.00;61.40;;;;;;5024133;28;841;-70
2022/11/23 13:38:35;;;;;;;;;;;19.00;61.50;;;;;;5016959;28;1292;-70
2022/11/23 13:41:00;;;;;;;;;;;18.90;61.40;;;;;;5037877;28;957;-70
2022/11/23 13:43:27;;;;;;;;;;;19.00;61.60;;;;;;5034540;28;1394;-70
2022/11/23 13:46:23;;;;;;;;;;;19.00;61.60;;;;;;5037350;28;1301;-70
2022/11/23 13:48:49;;;;;;;;;;;19.00;61.60;;;;;;5025263;28;1290;-70
2022/11/23 13:51:21;;;;;;;;;;;18.90;61.60;;;;;;5035002;28;1926;-70
2022/11/23 13:53:50;;;;;;;;;;;19.00;61.70;;;;;;5024833;28;950;-70
2022/11/23 13:56:27;;;;;;;;;;;18.90;61.70;;;;;;5028115;28;836;-70
2022/11/23 13:58:54;;;;;;;;;;;18.90;61.70;;;;;;5038374;28;1260;-70
2022/11/23 14:01:38;;;;;;;;;;;18.90;61.80;;;;;;5026920;28;972;-70
2022/11/23 14:04:22;;;;;;;;;;;18.90;61.70;;;;;;5039479;28;1276;-70
2022/11/23 14:06:50;;;;;;;;;;;18.90;61.80;;;;;;5019956;28;940;-70
2022/11/23 14:09:34;;;;;;;;;;;18.90;61.90;;;;;;5039049;28;985;-70
2022/11/23 14:12:18;;;;;;;;;;;18.90;62.00;;;;;;5040601;28;1894;-70
2022/11/23 14:14:54;;;;;;;;;;;18.90;61.90;;;;;;5037551;28;1483;-70
2022/11/23 14:17:28;;;;;;;;;;;18.90;62.00;;;;;;5038699;28;1263;-70
2022/11/23 14:19:53;;;;;;;;;;;18.90;62.00;;;;;;5040700;28;1332;-69
2022/11/23 14:22:31;;;;;;;;;;;18.90;62.10;;;;;;5041956;28;1584;-70
2022/11/23 14:24:56;;;;;;;;;;;18.90;62.10;;;;;;5008488;28;1257;-71
2022/11/23 14:27:40;;;;;;;;;;;18.90;62.20;;;;;;5040492;28;1372;-71
2022/11/23 14:30:12;;;;;;;;;;;18.90;62.20;;;;;;5024918;28;1227;-71
2022/11/23 14:32:40;;;;;;;;;;;18.90;62.20;;;;;;5041500;28;1902;-72
2022/11/23 14:35:09;;;;;;;;;;;18.90;62.30;;;;;;5040715;28;1371;-72
2022/11/23 14:37:53;;;;;;;;;;;18.90;62.30;;;;;;5039011;28;1449;-71
2022/11/23 14:40:29;;;;;;;;;;;18.90;62.30;;;;;;5037667;28;1571;-72